Skip Navigation Links weather.gov 
NOAA logo-Select to go to the NOAA homepage NDBC Title GraphicClick to go to NDBC home page   Select to go to the NWS homepage
Home About Us Contact Us
 
 
    
    Station List

 Data Access
    Mobile Access
    Classic Maps
         Recent
         DART®
    Obs Search
    Ship Obs Report
    BuoyCAMs
    TAO
    DODS
    OceanSITES
    HF Radar
    OSMC
    Dial-A-Buoy
    RSS Feeds Image indicating link to RSS feed access page
    Web Widget
    Email Access
    Web Data Guide
    Maintenance Schedule
    Station Status Report

 Program Info
    TAO
    DART®
    IOOS®

 Publications
    NDBC PEA
    NDBC FONSI
    NDBC DQC Handbook

 FAQ
 Visitor Information
 
USA.gov is the U.S. government's official web portal to all federal, state and local government web resources and services.

Station MHRN6 - 8519532 - Mariners Harbor, NY Image indicating link to RSS feed of recent meteorological observations for station MHRN6

Owned and maintained by NOAA's National Ocean Service
C-MAN Station
40.641 N 74.162 W (40°38'26" N 74°9'44" W)

Site elevation: 2.6 m above mean sea level
Anemometer height: 46 m above site elevation

Latest NWS Marine Forecast

Search And Rescue (SAR) Data

Meteorological Observations from Nearby Stations and Ships Image indicating link to RSS feed of recent meteorological observations near station MHRN6

Regional HF Radar Surface Current Observations

Large icon indicates selected station.
yellow diamond Stations with recent data
red diamond Stations with no data in last 8 hours
     (24 hours for tsunami stations)


Conditions at MHRN6 as of
(9:00 pm EST on 02/18/2019)
0200 GMT on 02/19/2019:
     

Click on the graph icon in the table below to see a time series plot of the last five days of that observation.

5-day plot - Wind Direction Wind Direction (WDIR): NW ( 310 deg true )
5-day plot - Wind Speed Wind Speed (WSPD): 20 kts
5-day plot - Wind Gust Wind Gust (GST): 22 kts
5-day plot - Wind Speed at 10 Meters Wind Speed at 10 meters (WSPD10M): 16 kts
5-day plot - Wind Speed at 10 Meters Wind Speed at 20 meters (WSPD20M): 17 kts
5-day plot - Wind Speed, Wind Gust and Atmospheric Pressure Combined plot of Wind Speed, Gust, and Air Pressure
NOS Water Level Observation Network Water Level
Previous observations
5-day plot - Wind Direction 5-day plot - Wind Speed 5-day plot - Wind Gust 5-day plot - Wave Height 5-day plot - Dominant Wave Period 5-day plot - Average Period 5-day plot - Mean Wave Direction 5-day plot - Atmospheric Pressure 5-day plot - Pressure Tendency 5-day plot - Air Temperature 5-day plot - Water Temperature 5-day plot - Dew Point 5-day plot - Salinity 5-day plot - Visibility 5-day plot - Tide (above MLLW)
MM DD TIME
(EST)
WDIR WSPD
kts
GST
kts
WVHT
ft
DPD
sec
APD
sec
MWD PRES
in
PTDY
in
ATMP
°F
WTMP
°F
DEWP
°F
SAL
psu
VIS
nmi
TIDE
ft
0218 8:54 pm NW 21 25------------
0218 8:48 pm NW 21 25------------
0218 8:42 pmWNW 15 21------------
0218 8:36 pm NW 18 22------------
0218 8:30 pmWNW 19 24------------
0218 8:24 pmWNW 21 26------------
0218 8:18 pmWNW 19 23------------
0218 8:12 pmWNW 20 24------------
0218 8:06 pmWNW 19 21------------
0218 8:00 pmWNW 17 21------------
0218 7:54 pmWNW 17 25------------
0218 7:48 pm NW 22 26------------
0218 7:42 pmWNW 14 22------------
0218 7:36 pmWNW 16 23------------
0218 7:30 pmWNW 24 28------------
0218 7:24 pmWNW 20 27------------
0218 7:18 pmWNW 20 29------------
0218 7:12 pmWNW 18 28------------
0218 7:06 pmWNW 19 26------------
0218 7:00 pmWNW 18 23------------
0218 6:54 pmWNW 17 21------------
0218 6:48 pm NW 15 21------------
0218 6:42 pm NW 19 26------------
0218 6:36 pm NW 22 27------------
0218 6:30 pm NW 23 28------------
0218 6:24 pm NW 23 30------------
0218 6:18 pm NW 21 27------------
0218 6:12 pmWNW 21 29------------
0218 6:06 pmWNW 23 27------------
0218 6:00 pmWNW 23 29------------
0218 5:54 pmWNW 23 28------------
0218 5:48 pmWNW 19 26------------
0218 5:42 pm W 18 27------------
0218 5:36 pm W 22 32------------
0218 5:30 pmWNW 26 30------------
0218 5:24 pmWNW 22 27------------
0218 5:18 pmWNW 20 29------------
0218 5:12 pmWNW 23 30------------
0218 5:06 pmWNW 23 30------------
0218 5:00 pmWNW 26 34------------
0218 4:54 pmWNW 27 31------------
0218 4:48 pmWNW 21 29------------
0218 4:42 pmWNW 20 28------------
0218 4:36 pmWNW 22 27------------
0218 4:30 pm NW 24 28------------
0218 4:24 pmWNW 22 30------------
0218 4:18 pm NW 22 30------------
0218 4:12 pmWNW 18 25------------
0218 4:06 pmWNW 19 28------------
0218 4:00 pmWNW 20 29------------
0218 3:54 pmWNW 16 26------------
0218 3:48 pmWNW 19 25------------
0218 3:42 pmWNW 24 32------------
0218 3:36 pmWNW 28 36------------
0218 3:30 pmWNW 30 37------------
0218 3:24 pm W 27 34------------
0218 3:18 pm W 18 25------------
0218 3:12 pm W 19 26------------
0218 3:06 pm W 23 28------------
0218 3:00 pmWNW 18 26------------
0218 2:54 pmWNW 18 26------------
0218 2:48 pmWNW 20 29------------
0218 2:42 pm W 19 31------------
0218 2:36 pm W 19 30------------
0218 2:30 pm W 19 31------------
0218 2:24 pm W 23 30------------
0218 2:18 pm W 23 30------------
0218 2:12 pm W 21 28------------
0218 2:06 pm W 18 25------------
0218 2:00 pm W 20 25------------
0218 1:54 pm W 19 24------------
0218 1:48 pm W 18 26------------
0218 1:42 pm W 18 27------------
0218 1:36 pm W 20 24------------
0218 1:30 pm W 16 24------------
0218 1:24 pm W 19 25------------
0218 1:18 pm W 13 20------------
0218 1:12 pm W 19 22------------
0218 1:06 pm W 15 21------------
0218 1:00 pm W 18 24------------
021812:54 pm W 19 23------------
021812:48 pm W 15 23------------
021812:42 pm W 20 24------------
021812:36 pm W 17 22------------
021812:30 pmWSW 15 21------------
021812:24 pm W 15 23------------
021812:18 pm W 18 24------------
021812:12 pm W 12 23------------
021812:06 pm W 12 19------------
021812:00 pm W 15 18------------
021811:54 am W 15 20------------
021811:48 am W 14 18------------
021811:42 am W 12 19------------
021811:36 am W 14 17------------
021811:30 am W 14 17------------
021811:24 am W 11 15------------
021811:18 am W 12 16------------
021811:12 am W 10 14------------
021811:06 am W 10 14------------
021811:00 am W 11 15------------
021810:54 am W 9 12------------
021810:48 am W 6 12------------
021810:42 am W 10 13------------
021810:36 am W 8 11------------
021810:30 am W 8 10------------
021810:24 am W 5 7------------
021810:18 am W 6 7------------
021810:12 am W 6 7------------
021810:06 am W 3 5------------
021810:00 amWNW 4 5------------
0218 9:54 amWNW 5 6------------
0218 9:48 amWNW 5 7------------
0218 9:42 am W 5 6------------
0218 9:36 amWNW 5 5------------
0218 9:30 amWNW 4 4------------
0218 9:24 am NW 3 4------------
0218 9:18 am NW 2 3------------
0218 9:12 amNNW 1 2------------
0218 9:06 am NW 3 3------------
0218 9:00 am NW 2 2------------
0218 8:54 am NW 2 3------------
0218 8:48 amNNW 2 3------------
0218 8:42 amNNW 2 3------------
0218 8:36 amNNW 2 3------------
0218 8:30 am N 2 3------------
0218 8:24 amNNW 3 3------------
0218 8:18 amNNW 3 3------------
0218 8:12 am N 2 3------------
0218 8:06 am N 2 3------------
0218 8:00 am N 3 3------------
0218 7:54 amNNW 2 2------------
0218 7:48 amNNW 2 3------------
0218 7:42 amNNW 3 5------------
0218 7:36 am NW 5 6------------
0218 7:30 amNNW 6 6------------
0218 7:24 am N 3 3------------
0218 7:18 am N 2 4------------
0218 7:12 am N 2 3------------
0218 7:06 am N 3 5------------
0218 7:00 amNNW 4 6------------
0218 6:54 amNNW 5 6------------
0218 6:48 am N 5 5------------
0218 6:42 amNNE 4 6------------
0218 6:36 am NE 5 6------------
0218 6:30 am NE 5 6------------
0218 6:24 amNNE 4 5------------
0218 6:18 amNNE 5 5------------
0218 6:12 amNNE 5 6------------
0218 6:06 amENE 3 7------------
0218 6:00 am E 6 8------------
0218 5:54 amENE 5 6------------
0218 5:48 amENE 5 6------------
0218 5:42 am NE 5 6------------
0218 5:36 am NE 3 6------------
0218 5:30 amNNE 5 8------------
0218 5:24 amENE 5 7------------
0218 5:18 amENE 6 7------------
0218 5:12 amENE 6 8------------
0218 5:06 am NE 5 6------------
0218 5:00 am NE 4 6------------
0218 4:54 amENE 5 8------------
0218 4:48 am E 7 10------------
0218 4:42 am E 9 10------------
0218 4:36 amENE 6 8------------
0218 4:30 amENE 6 9------------
0218 4:24 amENE 8 10------------
0218 4:18 am E 9 10------------
0218 4:12 amENE 9 10------------
0218 4:06 am E 7 8------------
0218 4:00 am E 7 9------------
0218 3:54 amENE 8 9------------
0218 3:48 am NE 8 9------------
0218 3:42 amNNE 7 10------------
0218 3:36 amNNE 8 10------------
0218 3:30 am NE 6 12------------
0218 3:24 am E 11 15------------
0218 3:18 am E 12 14------------
0218 3:12 am E 8 9------------
0218 3:06 am E 6 9------------
0218 3:00 amENE 6 7------------
0218 2:54 amENE 4 7------------
0218 2:48 am E 8 10------------
0218 2:42 amENE 7 9------------
0218 2:36 amENE 8 9------------
0218 2:30 am NE 7 8------------
0218 2:24 amNNE 5 7------------
0218 2:18 amENE 6 8------------
0218 2:12 amENE 8 9------------
0218 2:06 am E 6 9------------
0218 2:00 am E 5 9------------
0218 1:54 am E 5 7------------
0218 1:48 am E 5 8------------
0218 1:42 am E 7 8------------
0218 1:36 am E 8 9------------
0218 1:30 am E 6 6------------
0218 1:24 amENE 4 5------------
0218 1:18 am NE 3 5------------
0218 1:12 am E 5 7------------
0218 1:06 am E 5 7------------
0218 1:00 am E 5 8------------
021812:54 amESE 6 7------------
021812:48 amESE 5 7------------
021812:42 amESE 4 5------------
021812:36 amESE 4 5------------
021812:30 am E 4 4------------
021812:24 amESE 4 5------------
021812:18 amESE 3 3------------
021812:12 amESE 1 2------------
021812:06 am E 2 3------------
021812:00 amESE 1 2------------
021711:54 pm SE 3 5------------
021711:48 pm SE 4 7------------
021711:42 pm SE 5 6------------
021711:36 pm SE 4 5------------
021711:30 pmESE 3 3------------
021711:24 pm- 0 1------------
021711:18 pm SE 1 2------------
021711:12 pm- 0 5------------
021711:06 pmESE 5 6------------
021711:00 pm SE 3 4------------
021710:54 pm SW 3 5------------
021710:48 pmESE 4 7------------
021710:42 pmESE 2 6------------
021710:36 pm S 3 10------------
021710:30 pm SE 9 13------------
021710:24 pmSSE 9 11------------
021710:18 pmSSE 7 8------------
021710:12 pm SE 7 9------------
021710:06 pm SE 5 5------------
021710:00 pm SE 4 9------------
0217 9:54 pm SE 6 8------------
0217 9:48 pm SE 5 6------------
0217 9:42 pmSSE 4 6------------
0217 9:36 pm S 2 5------------
0217 9:30 pmSSE 5 8------------
0217 9:24 pmSSE 5 9------------
0217 9:18 pmSSE 7 10------------
0217 9:12 pmSSE 8 10------------
0217 9:06 pmSSE 8 11------------
0217 9:00 pm SE 9 11------------
0217 8:54 pm SE 7 9------------

Description of Measurements

Links which are specific to this station are listed below:

Real Time Data in tabular form for the last forty-five days.

Historical Data & Climatic Summaries for quality controlled data for the current month, previous months, and previous years.